首页
METAR-TAF:

METAR-TAF

机场 :

Cranbrook, 不列颠哥伦比亚, 加拿大

纬度: 49-37N, 经度: 115-47W, 海拔: 939米

当前天气观测

该预报发布于17分钟前的23:00 UTC
风速4节,风向,在南转南东西之间变化
温度 3°C
湿度 81%
气压 1015 hPa
能見度: 40.2公里
少量云层高于2500英尺
少量云层高于4000英尺
散云层高于6000英尺
散云层高于12000英尺
多云层高于25000英尺

METAR: CYXC 232300Z 17004KT 160V280 25SM FEW025 FEW040 SCT060 SCT120 BKN250 03/M00 A2996 RMK SC1SC2SC1AS2CI3 SC TR SC TR PRESFR SLP180

时间: 16:17 (23:17 UTC)

预报

该预报发布于4小时和39分钟前的18:38 UTC
预报有效从23日的 19点(UTC)到 24日的 07点(UTC)
风速3节,风向多变
能見度: 10公里
散云层高于1500英尺
多云层高于5000英尺
短暂存在
从 23日的 19点(UTC)到 23日的 21点(UTC)
能見度: 4.8公里
散云层高于800英尺
多云层高于1500英尺
小雪
从 23日的 2100点(UTC)
风速7节,风向
能見度: 10公里
散云层高于2000英尺
多云层高于5000英尺
短暂存在
从 23日的 21点(UTC)到 24日的 02点(UTC)
能見度: 10公里
多云层高于2000英尺
小阵雨
从 24日的 0200点(UTC)
风速7节,风向
能見度: 10公里
散云层高于2000英尺
多云层高于5000英尺
短暂存在
从 24日的 02点(UTC)到 24日的 06点(UTC)
能見度: 4.8公里
多云层高于2000英尺
小雨, 雪, 轻雾

TAF: CYXC 231838Z 2319/2407 VRB03KT P6SM SCT015 BKN050 TEMPO 2319/2321 3SM -SN SCT008 BKN015 FM232100 17007KT P6SM SCT020 BKN050 TEMPO 2321/2402 P6SM -SHRA BKN020 FM240200 17007KT P6SM SCT020 BKN050 TEMPO 2402/2406 3SM -RASN BR BKN020 RMK NXT FCST BY 240100Z

超过4000个机场的气象观测和天气预报(METAR&TAF报告)。

可查询的气象台以黄色和红色小点在地图上表示。

将鼠标移到小点上方,可查看气象台名称。

然后点击查看天气观测和预报。

如需切换地图:点击带黑十字的绿色按钮放大地图;点击带横线的绿色按钮缩小地图;或者点击绿色箭头查看邻近地区的地图。


METAR-TAF: